EWG115 EGKK-LOWI
Flight info
| Callsign | EWG115 |
|---|---|
| Flight time | N/A |
| Altitude | 31000 |
| Route | FRANE M604 TOVGU M84 CLN L608 SASKI L179 COA Y50 FERDI/N0413F230 UL607 SPI Q50 ARCKY L607 ROPUV/N0454F330 L607 XEBIX |
| Aircraft | A321/M-SDE1FGHIJ1RWXYZ/LB1 |
Departure
| Time | 2026-05-04 12:55 |
|---|---|
| Airport | London Gatwick Airport (EGKK) |
Arrival
| Time | N/A |
|---|---|
| Airport | Innsbruck Airport (LOWI) |
| Time | Latitude | Longitude | Altitude | Speed | Heading |
|---|---|---|---|---|---|
| 2026-05-04 12:08 | 51.15503 | -0.16771 | 203 ft | 0 kts | 348° |
| 2026-05-04 12:32 | 51.15502 | -0.16771 | 202 ft | 1 kts | 348° |
| 2026-05-04 12:32 | 51.15461 | -0.16733 | 211 ft | 4 kts | 296° |
| 2026-05-04 12:32 | 51.15455 | -0.16703 | 211 ft | 0 kts | 271° |
| 2026-05-04 12:36 | 51.15455 | -0.16710 | 212 ft | 6 kts | 271° |
| 2026-05-04 12:36 | 51.15448 | -0.16835 | 209 ft | 13 kts | 259° |
| 2026-05-04 12:36 | 51.15429 | -0.16978 | 208 ft | 14 kts | 257° |
| 2026-05-04 12:36 | 51.15405 | -0.17127 | 203 ft | 12 kts | 250° |
| 2026-05-04 12:37 | 51.15404 | -0.17132 | 207 ft | 0 kts | 250° |
| 2026-05-04 12:46 | 51.15386 | -0.17213 | 209 ft | 18 kts | 250° |
| 2026-05-04 12:46 | 51.15317 | -0.17393 | 211 ft | 19 kts | 235° |
| 2026-05-04 12:47 | 51.15281 | -0.17603 | 208 ft | 24 kts | 257° |
| 2026-05-04 12:47 | 51.15236 | -0.17928 | 208 ft | 32 kts | 257° |
| 2026-05-04 12:47 | 51.15188 | -0.18271 | 211 ft | 32 kts | 258° |
| 2026-05-04 12:47 | 51.15144 | -0.18620 | 214 ft | 32 kts | 258° |
| 2026-05-04 12:48 | 51.15096 | -0.18972 | 215 ft | 33 kts | 257° |
| 2026-05-04 12:48 | 51.15052 | -0.19290 | 209 ft | 23 kts | 257° |
| 2026-05-04 12:48 | 51.15017 | -0.19539 | 208 ft | 23 kts | 257° |
| 2026-05-04 12:48 | 51.14994 | -0.19704 | 208 ft | 7 kts | 257° |
| 2026-05-04 12:49 | 51.14992 | -0.19721 | 204 ft | 1 kts | 257° |
| 2026-05-04 12:49 | 51.14989 | -0.19741 | 204 ft | 0 kts | 257° |
| 2026-05-04 12:49 | 51.14988 | -0.19748 | 204 ft | 2 kts | 257° |
| 2026-05-04 12:49 | 51.14987 | -0.19752 | 204 ft | 1 kts | 257° |
| 2026-05-04 12:50 | 51.14985 | -0.19770 | 212 ft | 3 kts | 257° |
| 2026-05-04 12:50 | 51.14974 | -0.19853 | 210 ft | 19 kts | 259° |
| 2026-05-04 12:50 | 51.14932 | -0.20172 | 204 ft | 34 kts | 258° |
| 2026-05-04 12:50 | 51.14882 | -0.20541 | 206 ft | 34 kts | 257° |
| 2026-05-04 12:51 | 51.14830 | -0.20909 | 206 ft | 34 kts | 257° |
| 2026-05-04 12:51 | 51.14779 | -0.21240 | 205 ft | 21 kts | 254° |
| 2026-05-04 12:51 | 51.14754 | -0.21369 | 211 ft | 0 kts | 240° |
| 2026-05-04 12:51 | 51.14754 | -0.21370 | 211 ft | 0 kts | 240° |
| 2026-05-04 12:52 | 51.14754 | -0.21371 | 211 ft | 1 kts | 240° |
| 2026-05-04 12:52 | 51.14702 | -0.21391 | 210 ft | 19 kts | 157° |
| 2026-05-04 12:52 | 51.14620 | -0.21327 | 202 ft | 0 kts | 164° |
| 2026-05-04 12:53 | 51.14613 | -0.21324 | 202 ft | 5 kts | 164° |
| 2026-05-04 12:53 | 51.14557 | -0.21280 | 204 ft | 10 kts | 144° |
| 2026-05-04 12:54 | 51.14525 | -0.21181 | 214 ft | 11 kts | 97° |
| 2026-05-04 12:54 | 51.14524 | -0.21170 | 211 ft | 0 kts | 95° |
| 2026-05-04 12:54 | 51.14523 | -0.21145 | 209 ft | 10 kts | 95° |
| 2026-05-04 12:54 | 51.14561 | -0.20827 | 207 ft | 61 kts | 77° |
| 2026-05-04 12:55 | 51.14704 | -0.19795 | 209 ft | 127 kts | 78° |
| 2026-05-04 12:55 | 51.14926 | -0.18148 | 304 ft | 168 kts | 79° |
| 2026-05-04 12:55 | 51.15165 | -0.16377 | 1090 ft | 163 kts | 77° |
| 2026-05-04 12:55 | 51.15420 | -0.14612 | 1818 ft | 164 kts | 77° |
| 2026-05-04 12:56 | 51.15680 | -0.12848 | 2396 ft | 165 kts | 76° |
| 2026-05-04 12:56 | 51.15949 | -0.11037 | 2875 ft | 173 kts | 77° |
| 2026-05-04 12:56 | 51.16188 | -0.09130 | 3360 ft | 180 kts | 78° |
| 2026-05-04 12:56 | 51.16449 | -0.07081 | 3646 ft | 199 kts | 78° |
| 2026-05-04 12:57 | 51.16756 | -0.04819 | 3832 ft | 221 kts | 78° |
| 2026-05-04 12:57 | 51.16876 | -0.02257 | 4017 ft | 246 kts | 92° |
| 2026-05-04 12:57 | 51.16843 | -0.00577 | 4235 ft | 258 kts | 91° |
| 2026-05-04 12:57 | 51.16807 | 0.01364 | 4619 ft | 264 kts | 91° |
| 2026-05-04 12:58 | 51.16751 | 0.04324 | 4921 ft | 270 kts | 92° |
| 2026-05-04 12:58 | 51.16694 | 0.07303 | 4965 ft | 270 kts | 92° |
| 2026-05-04 12:58 | 51.16640 | 0.10283 | 4976 ft | 270 kts | 91° |
| 2026-05-04 12:58 | 51.16589 | 0.13267 | 4969 ft | 270 kts | 91° |
| 2026-05-04 12:59 | 51.16571 | 0.14269 | 4968 ft | 270 kts | 91° |
| 2026-05-04 12:59 | 51.16531 | 0.17249 | 4969 ft | 270 kts | 90° |
| 2026-05-04 12:59 | 51.16530 | 0.20230 | 4964 ft | 270 kts | 90° |
| 2026-05-04 12:59 | 51.16531 | 0.20537 | 4964 ft | 270 kts | 90° |
| 2026-05-04 13:00 | 51.16543 | 0.23540 | 4956 ft | 270 kts | 90° |
| 2026-05-04 13:00 | 51.16555 | 0.26519 | 4959 ft | 270 kts | 90° |
| 2026-05-04 13:00 | 51.16566 | 0.29505 | 4955 ft | 270 kts | 90° |
| 2026-05-04 13:00 | 51.16578 | 0.32494 | 4989 ft | 272 kts | 90° |
| 2026-05-04 13:01 | 51.16588 | 0.35505 | 5721 ft | 273 kts | 90° |
| 2026-05-04 13:01 | 51.16592 | 0.38541 | 6479 ft | 277 kts | 90° |
| 2026-05-04 13:01 | 51.16591 | 0.41625 | 7173 ft | 281 kts | 90° |
| 2026-05-04 13:01 | 51.16590 | 0.44740 | 7902 ft | 283 kts | 91° |
| 2026-05-04 13:02 | 51.16591 | 0.47884 | 8631 ft | 286 kts | 91° |
| 2026-05-04 13:02 | 51.16789 | 0.51055 | 9270 ft | 292 kts | 72° |
| 2026-05-04 13:02 | 51.17801 | 0.53840 | 9940 ft | 296 kts | 45° |
| 2026-05-04 13:02 | 51.19508 | 0.55636 | 10551 ft | 299 kts | 18° |
| 2026-05-04 13:03 | 51.21520 | 0.56474 | 11167 ft | 301 kts | 12° |
| 2026-05-04 13:03 | 51.23570 | 0.57224 | 11824 ft | 304 kts | 12° |
| 2026-05-04 13:03 | 51.25643 | 0.57975 | 12474 ft | 307 kts | 12° |
| 2026-05-04 13:03 | 51.27732 | 0.58736 | 13115 ft | 311 kts | 12° |
| 2026-05-04 13:04 | 51.29843 | 0.59514 | 13758 ft | 314 kts | 13° |
| 2026-05-04 13:04 | 51.31981 | 0.60313 | 14328 ft | 317 kts | 13° |
| 2026-05-04 13:04 | 51.34136 | 0.61121 | 14925 ft | 320 kts | 13° |
| 2026-05-04 13:04 | 51.36306 | 0.61931 | 15485 ft | 323 kts | 12° |
| 2026-05-04 13:05 | 51.38503 | 0.62755 | 16039 ft | 326 kts | 13° |
| 2026-05-04 13:05 | 51.40755 | 0.63606 | 16273 ft | 342 kts | 13° |
| 2026-05-04 13:05 | 51.43124 | 0.64508 | 16410 ft | 358 kts | 13° |
| 2026-05-04 13:05 | 51.45599 | 0.65453 | 16545 ft | 374 kts | 13° |
| 2026-05-04 13:06 | 51.48178 | 0.66437 | 16686 ft | 389 kts | 13° |
| 2026-05-04 13:06 | 51.50844 | 0.67452 | 16806 ft | 403 kts | 13° |
| 2026-05-04 13:06 | 51.53601 | 0.68499 | 17057 ft | 412 kts | 13° |
| 2026-05-04 13:06 | 51.56398 | 0.69559 | 17473 ft | 416 kts | 13° |
| 2026-05-04 13:07 | 51.59218 | 0.70626 | 17930 ft | 419 kts | 13° |
| 2026-05-04 13:07 | 51.62055 | 0.71705 | 18384 ft | 421 kts | 13° |
| 2026-05-04 13:07 | 51.64915 | 0.72795 | 18778 ft | 424 kts | 13° |
| 2026-05-04 13:07 | 51.67762 | 0.74042 | 19161 ft | 427 kts | 20° |
| 2026-05-04 13:08 | 51.70449 | 0.76072 | 19551 ft | 429 kts | 31° |
| 2026-05-04 13:08 | 51.72861 | 0.78905 | 19945 ft | 431 kts | 42° |
| 2026-05-04 13:08 | 51.74913 | 0.82429 | 20335 ft | 433 kts | 53° |
| 2026-05-04 13:08 | 51.76531 | 0.86525 | 20727 ft | 435 kts | 64° |
| 2026-05-04 13:09 | 51.77845 | 0.90931 | 21115 ft | 438 kts | 65° |
| 2026-05-04 13:09 | 51.79154 | 0.95366 | 21500 ft | 440 kts | 65° |
| 2026-05-04 13:09 | 51.80471 | 0.99840 | 21852 ft | 444 kts | 65° |
| 2026-05-04 13:09 | 51.81793 | 1.04362 | 22157 ft | 448 kts | 67° |
| 2026-05-04 13:10 | 51.82813 | 1.09118 | 22499 ft | 450 kts | 77° |
| 2026-05-04 13:10 | 51.83319 | 1.14105 | 22844 ft | 452 kts | 87° |
| 2026-05-04 13:10 | 51.83302 | 1.19172 | 23199 ft | 453 kts | 97° |
| 2026-05-04 13:10 | 51.82763 | 1.24169 | 23552 ft | 453 kts | 107° |
| 2026-05-04 13:11 | 51.81783 | 1.28997 | 23846 ft | 454 kts | 111° |
| 2026-05-04 13:11 | 51.80738 | 1.33814 | 24166 ft | 456 kts | 111° |
| 2026-05-04 13:11 | 51.79686 | 1.38649 | 24492 ft | 458 kts | 111° |
| 2026-05-04 13:11 | 51.78629 | 1.43497 | 24836 ft | 459 kts | 111° |
| 2026-05-04 13:12 | 51.77567 | 1.48358 | 25158 ft | 461 kts | 111° |
| 2026-05-04 13:12 | 51.76500 | 1.53235 | 25485 ft | 463 kts | 112° |
| 2026-05-04 13:12 | 51.75425 | 1.58127 | 25790 ft | 464 kts | 112° |
| 2026-05-04 13:12 | 51.74347 | 1.63031 | 26098 ft | 465 kts | 112° |
| 2026-05-04 13:13 | 51.73265 | 1.67949 | 26393 ft | 467 kts | 112° |
| 2026-05-04 13:13 | 51.72180 | 1.72876 | 26672 ft | 468 kts | 112° |
| 2026-05-04 13:13 | 51.71088 | 1.77814 | 26944 ft | 469 kts | 112° |
| 2026-05-04 13:13 | 51.69993 | 1.82763 | 27204 ft | 470 kts | 112° |
| 2026-05-04 13:14 | 51.68892 | 1.87721 | 27451 ft | 471 kts | 112° |
| 2026-05-04 13:14 | 51.67789 | 1.92674 | 27779 ft | 470 kts | 112° |
| 2026-05-04 13:14 | 51.66689 | 1.97608 | 28138 ft | 468 kts | 113° |
| 2026-05-04 13:14 | 51.65591 | 2.02514 | 28535 ft | 465 kts | 113° |
| 2026-05-04 13:15 | 51.64496 | 2.07396 | 28901 ft | 464 kts | 114° |
| 2026-05-04 13:15 | 51.63399 | 2.12269 | 29275 ft | 462 kts | 114° |
| 2026-05-04 13:15 | 51.62305 | 2.17101 | 29651 ft | 460 kts | 114° |
| 2026-05-04 13:15 | 51.61210 | 2.21914 | 30017 ft | 458 kts | 114° |
| 2026-05-04 13:16 | 51.60117 | 2.26710 | 30338 ft | 457 kts | 114° |
| 2026-05-04 13:16 | 51.59029 | 2.31488 | 30613 ft | 456 kts | 114° |
| 2026-05-04 13:16 | 51.57942 | 2.36273 | 30871 ft | 456 kts | 114° |
| 2026-05-04 13:16 | 51.56857 | 2.41047 | 30983 ft | 455 kts | 114° |
| 2026-05-04 13:17 | 51.55769 | 2.45808 | 31026 ft | 453 kts | 115° |
| 2026-05-04 13:17 | 51.53599 | 2.55262 | 31020 ft | 451 kts | 115° |
| 2026-05-04 13:18 | 51.51426 | 2.64697 | 31020 ft | 450 kts | 115° |
| 2026-05-04 13:18 | 51.49250 | 2.74100 | 31019 ft | 450 kts | 115° |
| 2026-05-04 13:19 | 51.47066 | 2.83488 | 31021 ft | 450 kts | 115° |
| 2026-05-04 13:19 | 51.44875 | 2.92875 | 31005 ft | 450 kts | 116° |
| 2026-05-04 13:20 | 51.42675 | 3.02250 | 31013 ft | 450 kts | 116° |
| 2026-05-04 13:20 | 51.40538 | 3.11331 | 31015 ft | 450 kts | 116° |
| 2026-05-04 13:21 | 51.38325 | 3.20703 | 31015 ft | 450 kts | 116° |
| 2026-05-04 13:21 | 51.35667 | 3.29768 | 31006 ft | 451 kts | 129° |
| 2026-05-04 13:22 | 51.31357 | 3.36900 | 31004 ft | 446 kts | 149° |
| 2026-05-04 13:22 | 51.25920 | 3.41325 | 31002 ft | 439 kts | 161° |
| 2026-05-04 13:23 | 51.20266 | 3.44982 | 30993 ft | 439 kts | 161° |
| 2026-05-04 13:23 | 51.14612 | 3.48649 | 30995 ft | 440 kts | 161° |
| 2026-05-04 13:24 | 51.08952 | 3.52305 | 30999 ft | 440 kts | 161° |
| 2026-05-04 13:24 | 51.03285 | 3.55947 | 31001 ft | 440 kts | 161° |
| 2026-05-04 13:25 | 50.95029 | 3.62313 | 30998 ft | 447 kts | 146° |
| 2026-05-04 13:25 | 50.90766 | 3.69571 | 31000 ft | 459 kts | 126° |
| 2026-05-04 13:26 | 50.88301 | 3.78987 | 30978 ft | 469 kts | 112° |
| 2026-05-04 13:26 | 50.86399 | 3.88868 | 30975 ft | 471 kts | 112° |
| 2026-05-04 13:27 | 50.84484 | 3.98775 | 30979 ft | 472 kts | 112° |
| 2026-05-04 13:27 | 50.82544 | 4.08685 | 30991 ft | 473 kts | 112° |
| 2026-05-04 13:28 | 50.80589 | 4.18596 | 31006 ft | 473 kts | 112° |
| 2026-05-04 13:28 | 50.78629 | 4.28497 | 31010 ft | 472 kts | 112° |
| 2026-05-04 13:29 | 50.76668 | 4.38372 | 31031 ft | 472 kts | 112° |
| 2026-05-04 13:29 | 50.74697 | 4.48225 | 31020 ft | 471 kts | 112° |
| 2026-05-04 13:30 | 50.72718 | 4.58063 | 31020 ft | 471 kts | 112° |
| 2026-05-04 13:30 | 50.70760 | 4.67905 | 31000 ft | 471 kts | 111° |
| 2026-05-04 13:31 | 50.68863 | 4.77786 | 30995 ft | 472 kts | 111° |
| 2026-05-04 13:31 | 50.66960 | 4.87680 | 30989 ft | 473 kts | 111° |
| 2026-05-04 13:32 | 50.65006 | 4.97550 | 31007 ft | 473 kts | 112° |
| 2026-05-04 13:32 | 50.62971 | 5.07381 | 31012 ft | 473 kts | 113° |
| 2026-05-04 13:33 | 50.60914 | 5.17206 | 30971 ft | 474 kts | 113° |
| 2026-05-04 13:33 | 50.58864 | 5.27060 | 30975 ft | 476 kts | 113° |
| 2026-05-04 13:34 | 50.56813 | 5.36949 | 30988 ft | 477 kts | 113° |
| 2026-05-04 13:34 | 50.54745 | 5.46840 | 30993 ft | 477 kts | 113° |
| 2026-05-04 13:35 | 50.51499 | 5.61578 | 30979 ft | 473 kts | 120° |
| 2026-05-04 13:36 | 50.48131 | 5.70302 | 30988 ft | 466 kts | 129° |
| 2026-05-04 13:36 | 50.44541 | 5.78757 | 31005 ft | 466 kts | 128° |
| 2026-05-04 13:37 | 50.40962 | 5.87219 | 31012 ft | 467 kts | 128° |
| 2026-05-04 13:37 | 50.37389 | 5.95679 | 31012 ft | 466 kts | 128° |
| 2026-05-04 13:38 | 50.33804 | 6.04115 | 30991 ft | 466 kts | 128° |
| 2026-05-04 13:38 | 50.30509 | 6.12866 | 30993 ft | 474 kts | 117° |
| 2026-05-04 13:39 | 50.28895 | 6.22936 | 31006 ft | 483 kts | 103° |
| 2026-05-04 13:39 | 50.27820 | 6.33282 | 30993 ft | 484 kts | 104° |
| 2026-05-04 13:40 | 50.26713 | 6.43624 | 30995 ft | 484 kts | 104° |
| 2026-05-04 13:40 | 50.25588 | 6.53975 | 31256 ft | 477 kts | 104° |
| 2026-05-04 13:40 | 50.25051 | 6.58971 | 32358 ft | 457 kts | 104° |
| 2026-05-04 13:41 | 50.24538 | 6.63749 | 33529 ft | 437 kts | 105° |
| 2026-05-04 13:41 | 50.24043 | 6.68324 | 34425 ft | 424 kts | 105° |
| 2026-05-04 13:41 | 50.23543 | 6.72830 | 34773 ft | 421 kts | 105° |
| 2026-05-04 13:42 | 50.22519 | 6.81860 | 35024 ft | 427 kts | 105° |
| 2026-05-04 13:42 | 50.22512 | 6.81919 | 35026 ft | 427 kts | 105° |
| 2026-05-04 13:42 | 50.22044 | 6.87392 | 35024 ft | 438 kts | 98° |
| 2026-05-04 13:43 | 50.21575 | 6.97010 | 35032 ft | 451 kts | 99° |
| 2026-05-04 13:43 | 50.21125 | 7.05574 | 35030 ft | 463 kts | 99° |
| 2026-05-04 13:44 | 50.21009 | 7.07757 | 35030 ft | 466 kts | 99° |
| 2026-05-04 13:44 | 50.20454 | 7.17939 | 35030 ft | 477 kts | 99° |
| 2026-05-04 13:45 | 50.19882 | 7.28331 | 35025 ft | 485 kts | 99° |
| 2026-05-04 13:45 | 50.18466 | 7.38511 | 35000 ft | 479 kts | 113° |
| 2026-05-04 13:46 | 50.16372 | 7.48367 | 35013 ft | 480 kts | 113° |